sensor_id;sensor_type;location;lat;lon;timestamp;P1;durP1;ratioP1;P2;durP2;ratioP2
58918;SDS011;44704;50.122;19.932;2022-12-29T00:00:06;17.20;;;8.20;;
58918;SDS011;44704;50.122;19.932;2022-12-29T00:02:58;19.60;;;8.40;;
58918;SDS011;44704;50.122;19.932;2022-12-29T00:05:25;16.20;;;7.70;;
58918;SDS011;44704;50.122;19.932;2022-12-29T00:07:51;18.90;;;9.20;;
58918;SDS011;44704;50.122;19.932;2022-12-29T00:10:17;20.50;;;9.30;;
58918;SDS011;44704;50.122;19.932;2022-12-29T00:12:43;21.00;;;10.90;;
58918;SDS011;44704;50.122;19.932;2022-12-29T00:15:28;19.90;;;9.70;;
58918;SDS011;44704;50.122;19.932;2022-12-29T00:18:03;23.70;;;10.20;;
58918;SDS011;44704;50.122;19.932;2022-12-29T00:20:32;22.60;;;9.20;;
58918;SDS011;44704;50.122;19.932;2022-12-29T00:23:18;17.80;;;9.50;;
58918;SDS011;44704;50.122;19.932;2022-12-29T00:26:03;21.70;;;9.50;;
58918;SDS011;44704;50.122;19.932;2022-12-29T00:28:53;18.00;;;8.70;;
58918;SDS011;44704;50.122;19.932;2022-12-29T00:31:37;20.20;;;8.80;;
58918;SDS011;44704;50.122;19.932;2022-12-29T00:34:22;19.70;;;8.60;;
58918;SDS011;44704;50.122;19.932;2022-12-29T00:37:07;17.30;;;9.40;;
58918;SDS011;44704;50.122;19.932;2022-12-29T00:39:33;20.30;;;8.50;;
58918;SDS011;44704;50.122;19.932;2022-12-29T00:42:18;18.50;;;8.30;;
58918;SDS011;44704;50.122;19.932;2022-12-29T00:45:03;20.50;;;10.20;;
58918;SDS011;44704;50.122;19.932;2022-12-29T00:47:30;24.00;;;11.70;;
58918;SDS011;44704;50.122;19.932;2022-12-29T00:49:56;28.60;;;11.90;;
58918;SDS011;44704;50.122;19.932;2022-12-29T00:52:22;26.40;;;13.20;;
58918;SDS011;44704;50.122;19.932;2022-12-29T00:54:48;28.60;;;14.50;;
58918;SDS011;44704;50.122;19.932;2022-12-29T00:57:15;26.60;;;13.60;;
58918;SDS011;44704;50.122;19.932;2022-12-29T00:59:41;27.00;;;12.50;;
58918;SDS011;44704;50.122;19.932;2022-12-29T01:02:09;21.60;;;11.20;;
58918;SDS011;44704;50.122;19.932;2022-12-29T01:04:36;26.00;;;11.00;;
58918;SDS011;44704;50.122;19.932;2022-12-29T01:07:03;24.00;;;11.60;;
58918;SDS011;44704;50.122;19.932;2022-12-29T01:09:29;23.00;;;10.50;;
58918;SDS011;44704;50.122;19.932;2022-12-29T01:12:15;17.40;;;8.90;;
58918;SDS011;44704;50.122;19.932;2022-12-29T01:14:42;18.30;;;8.80;;
58918;SDS011;44704;50.122;19.932;2022-12-29T01:17:08;22.60;;;8.90;;
58918;SDS011;44704;50.122;19.932;2022-12-29T01:19:34;19.60;;;8.70;;
58918;SDS011;44704;50.122;19.932;2022-12-29T01:22:00;17.20;;;7.50;;
58918;SDS011;44704;50.122;19.932;2022-12-29T01:24:27;16.30;;;7.00;;
58918;SDS011;44704;50.122;19.932;2022-12-29T01:26:54;16.60;;;7.20;;
58918;SDS011;44704;50.122;19.932;2022-12-29T01:29:20;15.20;;;6.30;;
58918;SDS011;44704;50.122;19.932;2022-12-29T01:31:47;12.70;;;6.00;;
58918;SDS011;44704;50.122;19.932;2022-12-29T01:34:15;13.60;;;6.20;;
58918;SDS011;44704;50.122;19.932;2022-12-29T01:36:41;16.30;;;6.70;;
58918;SDS011;44704;50.122;19.932;2022-12-29T01:39:07;14.80;;;6.20;;
58918;SDS011;44704;50.122;19.932;2022-12-29T01:41:33;12.10;;;6.30;;
58918;SDS011;44704;50.122;19.932;2022-12-29T01:44:01;15.10;;;6.30;;
58918;SDS011;44704;50.122;19.932;2022-12-29T01:46:40;13.60;;;6.30;;
58918;SDS011;44704;50.122;19.932;2022-12-29T01:49:13;11.90;;;6.40;;
58918;SDS011;44704;50.122;19.932;2022-12-29T01:51:49;17.30;;;7.20;;
58918;SDS011;44704;50.122;19.932;2022-12-29T01:54:39;15.90;;;6.20;;
58918;SDS011;44704;50.122;19.932;2022-12-29T01:57:16;12.30;;;5.70;;
58918;SDS011;44704;50.122;19.932;2022-12-29T01:59:48;12.60;;;6.30;;
58918;SDS011;44704;50.122;19.932;2022-12-29T02:02:19;14.10;;;6.70;;
58918;SDS011;44704;50.122;19.932;2022-12-29T02:04:45;15.20;;;7.50;;
58918;SDS011;44704;50.122;19.932;2022-12-29T02:07:13;14.60;;;7.30;;
58918;SDS011;44704;50.122;19.932;2022-12-29T02:09:45;14.80;;;7.60;;
58918;SDS011;44704;50.122;19.932;2022-12-29T02:12:15;16.40;;;7.80;;
58918;SDS011;44704;50.122;19.932;2022-12-29T02:14:43;14.60;;;7.90;;
58918;SDS011;44704;50.122;19.932;2022-12-29T02:22:55;16.60;;;8.20;;
58918;SDS011;44704;50.122;19.932;2022-12-29T02:34:31;14.10;;;7.60;;
58918;SDS011;44704;50.122;19.932;2022-12-29T02:53:44;14.30;;;6.90;;
58918;SDS011;44704;50.122;19.932;2022-12-29T02:56:31;19.10;;;7.70;;
58918;SDS011;44704;50.122;19.932;2022-12-29T02:58:57;17.10;;;7.70;;
58918;SDS011;44704;50.122;19.932;2022-12-29T03:01:35;14.70;;;7.10;;
58918;SDS011;44704;50.122;19.932;2022-12-29T03:10:10;15.90;;;6.50;;
58918;SDS011;44704;50.122;19.932;2022-12-29T03:12:53;14.90;;;7.10;;
58918;SDS011;44704;50.122;19.932;2022-12-29T03:15:55;13.10;;;6.80;;
58918;SDS011;44704;50.122;19.932;2022-12-29T03:21:03;17.10;;;6.70;;
58918;SDS011;44704;50.122;19.932;2022-12-29T03:23:35;16.80;;;7.30;;
58918;SDS011;44704;50.122;19.932;2022-12-29T03:26:04;13.90;;;6.10;;
58918;SDS011;44704;50.122;19.932;2022-12-29T03:28:53;14.70;;;6.40;;
58918;SDS011;44704;50.122;19.932;2022-12-29T03:31:24;16.00;;;6.70;;
58918;SDS011;44704;50.122;19.932;2022-12-29T03:33:52;13.80;;;7.20;;
58918;SDS011;44704;50.122;19.932;2022-12-29T03:36:28;16.20;;;7.20;;
58918;SDS011;44704;50.122;19.932;2022-12-29T03:39:11;11.80;;;5.80;;
58918;SDS011;44704;50.122;19.932;2022-12-29T03:41:42;13.70;;;6.00;;
58918;SDS011;44704;50.122;19.932;2022-12-29T03:44:11;14.70;;;7.10;;
58918;SDS011;44704;50.122;19.932;2022-12-29T03:46:38;12.10;;;5.80;;
58918;SDS011;44704;50.122;19.932;2022-12-29T03:49:05;13.10;;;5.80;;
58918;SDS011;44704;50.122;19.932;2022-12-29T03:51:31;11.10;;;5.40;;
58918;SDS011;44704;50.122;19.932;2022-12-29T03:53:57;10.90;;;6.00;;
58918;SDS011;44704;50.122;19.932;2022-12-29T03:56:24;15.10;;;6.00;;
58918;SDS011;44704;50.122;19.932;2022-12-29T03:58:51;13.60;;;6.50;;
58918;SDS011;44704;50.122;19.932;2022-12-29T04:01:24;12.10;;;5.70;;
58918;SDS011;44704;50.122;19.932;2022-12-29T04:03:50;13.00;;;6.00;;
58918;SDS011;44704;50.122;19.932;2022-12-29T04:06:16;11.50;;;5.60;;
58918;SDS011;44704;50.122;19.932;2022-12-29T04:08:48;12.20;;;5.90;;
58918;SDS011;44704;50.122;19.932;2022-12-29T04:11:14;13.70;;;6.10;;
58918;SDS011;44704;50.122;19.932;2022-12-29T04:13:41;14.60;;;6.00;;
58918;SDS011;44704;50.122;19.932;2022-12-29T04:16:09;13.20;;;6.30;;
58918;SDS011;44704;50.122;19.932;2022-12-29T04:18:36;11.10;;;6.10;;
58918;SDS011;44704;50.122;19.932;2022-12-29T04:21:02;13.40;;;7.00;;
58918;SDS011;44704;50.122;19.932;2022-12-29T04:23:33;13.50;;;6.40;;
58918;SDS011;44704;50.122;19.932;2022-12-29T04:26:03;14.50;;;7.30;;
58918;SDS011;44704;50.122;19.932;2022-12-29T04:28:33;12.90;;;7.40;;
58918;SDS011;44704;50.122;19.932;2022-12-29T04:31:18;14.50;;;6.50;;
58918;SDS011;44704;50.122;19.932;2022-12-29T04:33:45;14.60;;;6.50;;
58918;SDS011;44704;50.122;19.932;2022-12-29T04:36:11;12.30;;;6.40;;
58918;SDS011;44704;50.122;19.932;2022-12-29T04:38:38;12.50;;;5.90;;
58918;SDS011;44704;50.122;19.932;2022-12-29T04:41:05;14.80;;;6.30;;
58918;SDS011;44704;50.122;19.932;2022-12-29T04:43:32;13.50;;;5.70;;
58918;SDS011;44704;50.122;19.932;2022-12-29T04:46:13;12.80;;;5.30;;
58918;SDS011;44704;50.122;19.932;2022-12-29T04:49:00;10.70;;;5.50;;
58918;SDS011;44704;50.122;19.932;2022-12-29T04:51:53;12.00;;;5.40;;
58918;SDS011;44704;50.122;19.932;2022-12-29T04:54:19;14.10;;;5.60;;
58918;SDS011;44704;50.122;19.932;2022-12-29T04:56:53;11.50;;;6.00;;
58918;SDS011;44704;50.122;19.932;2022-12-29T04:59:19;10.80;;;6.00;;
58918;SDS011;44704;50.122;19.932;2022-12-29T05:01:48;11.40;;;5.50;;
58918;SDS011;44704;50.122;19.932;2022-12-29T05:04:14;16.40;;;6.10;;
58918;SDS011;44704;50.122;19.932;2022-12-29T05:06:42;16.30;;;6.20;;
58918;SDS011;44704;50.122;19.932;2022-12-29T05:09:09;11.70;;;7.30;;
58918;SDS011;44704;50.122;19.932;2022-12-29T05:11:35;19.10;;;10.30;;
58918;SDS011;44704;50.122;19.932;2022-12-29T05:14:02;20.50;;;9.70;;
58918;SDS011;44704;50.122;19.932;2022-12-29T05:16:29;16.10;;;8.00;;
58918;SDS011;44704;50.122;19.932;2022-12-29T05:18:55;14.70;;;6.60;;
58918;SDS011;44704;50.122;19.932;2022-12-29T05:21:21;11.70;;;5.70;;
58918;SDS011;44704;50.122;19.932;2022-12-29T05:23:48;10.60;;;5.10;;
58918;SDS011;44704;50.122;19.932;2022-12-29T05:26:15;9.60;;;4.40;;
58918;SDS011;44704;50.122;19.932;2022-12-29T05:28:56;9.80;;;4.40;;
58918;SDS011;44704;50.122;19.932;2022-12-29T05:31:22;9.90;;;4.60;;
58918;SDS011;44704;50.122;19.932;2022-12-29T05:33:48;11.60;;;5.40;;
58918;SDS011;44704;50.122;19.932;2022-12-29T05:36:15;18.40;;;6.20;;
58918;SDS011;44704;50.122;19.932;2022-12-29T05:38:45;18.00;;;6.00;;
58918;SDS011;44704;50.122;19.932;2022-12-29T05:41:12;10.40;;;5.30;;
58918;SDS011;44704;50.122;19.932;2022-12-29T05:43:41;12.10;;;4.70;;
58918;SDS011;44704;50.122;19.932;2022-12-29T05:46:26;9.10;;;4.40;;
58918;SDS011;44704;50.122;19.932;2022-12-29T05:49:08;14.40;;;6.10;;
58918;SDS011;44704;50.122;19.932;2022-12-29T05:55:06;15.60;;;7.20;;
58918;SDS011;44704;50.122;19.932;2022-12-29T05:57:34;16.60;;;6.90;;
58918;SDS011;44704;50.122;19.932;2022-12-29T06:00:07;12.10;;;6.20;;
58918;SDS011;44704;50.122;19.932;2022-12-29T06:02:40;12.10;;;6.40;;
58918;SDS011;44704;50.122;19.932;2022-12-29T06:05:08;11.60;;;5.40;;
58918;SDS011;44704;50.122;19.932;2022-12-29T06:07:36;11.30;;;6.30;;
58918;SDS011;44704;50.122;19.932;2022-12-29T06:10:03;11.70;;;5.70;;
58918;SDS011;44704;50.122;19.932;2022-12-29T06:12:35;10.90;;;5.90;;
58918;SDS011;44704;50.122;19.932;2022-12-29T06:15:01;10.20;;;5.40;;
58918;SDS011;44704;50.122;19.932;2022-12-29T06:17:28;14.60;;;6.50;;
58918;SDS011;44704;50.122;19.932;2022-12-29T06:19:54;8.00;;;5.30;;
58918;SDS011;44704;50.122;19.932;2022-12-29T06:22:21;15.70;;;6.40;;
58918;SDS011;44704;50.122;19.932;2022-12-29T06:24:47;9.30;;;5.40;;
58918;SDS011;44704;50.122;19.932;2022-12-29T06:27:13;14.70;;;5.50;;
58918;SDS011;44704;50.122;19.932;2022-12-29T06:29:40;11.10;;;5.80;;
58918;SDS011;44704;50.122;19.932;2022-12-29T06:32:07;10.80;;;5.90;;
58918;SDS011;44704;50.122;19.932;2022-12-29T06:34:35;13.80;;;5.40;;
58918;SDS011;44704;50.122;19.932;2022-12-29T06:37:01;10.00;;;5.00;;
58918;SDS011;44704;50.122;19.932;2022-12-29T06:39:28;11.40;;;5.00;;
58918;SDS011;44704;50.122;19.932;2022-12-29T06:42:03;17.60;;;6.00;;
58918;SDS011;44704;50.122;19.932;2022-12-29T06:44:58;18.70;;;5.90;;
58918;SDS011;44704;50.122;19.932;2022-12-29T06:47:26;13.00;;;5.40;;
58918;SDS011;44704;50.122;19.932;2022-12-29T06:49:53;12.80;;;5.20;;
58918;SDS011;44704;50.122;19.932;2022-12-29T06:52:19;10.40;;;4.80;;
58918;SDS011;44704;50.122;19.932;2022-12-29T06:54:45;12.90;;;5.10;;
58918;SDS011;44704;50.122;19.932;2022-12-29T06:57:11;13.40;;;4.70;;
58918;SDS011;44704;50.122;19.932;2022-12-29T06:59:37;12.60;;;5.10;;
58918;SDS011;44704;50.122;19.932;2022-12-29T07:02:04;10.00;;;4.40;;
58918;SDS011;44704;50.122;19.932;2022-12-29T07:04:31;9.20;;;4.90;;
58918;SDS011;44704;50.122;19.932;2022-12-29T07:06:58;9.40;;;4.50;;
58918;SDS011;44704;50.122;19.932;2022-12-29T07:09:24;7.80;;;3.90;;
58918;SDS011;44704;50.122;19.932;2022-12-29T07:11:50;8.00;;;4.20;;
58918;SDS011;44704;50.122;19.932;2022-12-29T07:14:16;8.80;;;4.80;;
58918;SDS011;44704;50.122;19.932;2022-12-29T07:16:42;9.80;;;4.50;;
58918;SDS011;44704;50.122;19.932;2022-12-29T07:19:09;15.70;;;5.20;;
58918;SDS011;44704;50.122;19.932;2022-12-29T07:21:35;20.90;;;5.20;;
58918;SDS011;44704;50.122;19.932;2022-12-29T07:24:02;12.40;;;5.70;;
58918;SDS011;44704;50.122;19.932;2022-12-29T07:26:28;9.70;;;4.50;;
58918;SDS011;44704;50.122;19.932;2022-12-29T07:28:54;9.10;;;5.00;;
58918;SDS011;44704;50.122;19.932;2022-12-29T07:31:21;11.20;;;4.70;;
58918;SDS011;44704;50.122;19.932;2022-12-29T07:33:48;11.80;;;4.80;;
58918;SDS011;44704;50.122;19.932;2022-12-29T07:36:15;10.60;;;4.60;;
58918;SDS011;44704;50.122;19.932;2022-12-29T07:38:42;10.70;;;5.50;;
58918;SDS011;44704;50.122;19.932;2022-12-29T07:41:08;9.50;;;4.70;;
58918;SDS011;44704;50.122;19.932;2022-12-29T07:43:35;11.60;;;4.60;;
58918;SDS011;44704;50.122;19.932;2022-12-29T07:46:24;9.80;;;4.50;;
58918;SDS011;44704;50.122;19.932;2022-12-29T07:48:50;11.90;;;5.50;;
58918;SDS011;44704;50.122;19.932;2022-12-29T07:51:17;10.80;;;4.30;;
58918;SDS011;44704;50.122;19.932;2022-12-29T07:53:43;11.10;;;4.50;;
58918;SDS011;44704;50.122;19.932;2022-12-29T07:56:09;8.60;;;4.00;;
58918;SDS011;44704;50.122;19.932;2022-12-29T07:58:35;5.90;;;3.70;;
58918;SDS011;44704;50.122;19.932;2022-12-29T08:01:02;7.00;;;4.00;;
58918;SDS011;44704;50.122;19.932;2022-12-29T08:03:28;7.10;;;3.80;;
58918;SDS011;44704;50.122;19.932;2022-12-29T08:05:54;8.90;;;4.80;;
58918;SDS011;44704;50.122;19.932;2022-12-29T08:08:22;8.60;;;4.10;;
58918;SDS011;44704;50.122;19.932;2022-12-29T08:10:48;7.70;;;4.10;;
58918;SDS011;44704;50.122;19.932;2022-12-29T08:13:15;8.20;;;3.90;;
58918;SDS011;44704;50.122;19.932;2022-12-29T08:15:41;7.70;;;4.00;;
58918;SDS011;44704;50.122;19.932;2022-12-29T08:18:07;7.40;;;3.50;;
58918;SDS011;44704;50.122;19.932;2022-12-29T08:20:33;9.30;;;5.20;;
58918;SDS011;44704;50.122;19.932;2022-12-29T08:23:00;10.30;;;5.40;;
58918;SDS011;44704;50.122;19.932;2022-12-29T08:25:26;20.80;;;8.30;;
58918;SDS011;44704;50.122;19.932;2022-12-29T08:27:52;14.00;;;7.50;;
58918;SDS011;44704;50.122;19.932;2022-12-29T08:30:18;16.00;;;7.40;;
58918;SDS011;44704;50.122;19.932;2022-12-29T08:32:44;21.10;;;9.20;;
58918;SDS011;44704;50.122;19.932;2022-12-29T08:35:11;13.80;;;7.60;;
58918;SDS011;44704;50.122;19.932;2022-12-29T08:37:38;12.30;;;6.00;;
58918;SDS011;44704;50.122;19.932;2022-12-29T08:40:04;12.20;;;6.70;;
58918;SDS011;44704;50.122;19.932;2022-12-29T08:42:31;12.50;;;5.30;;
58918;SDS011;44704;50.122;19.932;2022-12-29T08:44:58;12.80;;;5.50;;
58918;SDS011;44704;50.122;19.932;2022-12-29T08:47:25;14.80;;;7.20;;
58918;SDS011;44704;50.122;19.932;2022-12-29T08:49:51;19.20;;;7.80;;
58918;SDS011;44704;50.122;19.932;2022-12-29T08:52:18;13.20;;;7.10;;
58918;SDS011;44704;50.122;19.932;2022-12-29T08:54:44;19.40;;;7.50;;
58918;SDS011;44704;50.122;19.932;2022-12-29T08:57:11;17.70;;;6.80;;
58918;SDS011;44704;50.122;19.932;2022-12-29T08:59:47;17.10;;;6.50;;
58918;SDS011;44704;50.122;19.932;2022-12-29T09:02:14;12.30;;;6.00;;
58918;SDS011;44704;50.122;19.932;2022-12-29T09:04:40;11.10;;;5.70;;
58918;SDS011;44704;50.122;19.932;2022-12-29T09:07:06;9.90;;;4.80;;
58918;SDS011;44704;50.122;19.932;2022-12-29T09:09:32;13.90;;;6.00;;
58918;SDS011;44704;50.122;19.932;2022-12-29T09:11:59;11.20;;;5.20;;
58918;SDS011;44704;50.122;19.932;2022-12-29T09:14:25;10.90;;;4.60;;
58918;SDS011;44704;50.122;19.932;2022-12-29T09:16:52;12.70;;;5.00;;
58918;SDS011;44704;50.122;19.932;2022-12-29T09:19:37;8.30;;;5.00;;
58918;SDS011;44704;50.122;19.932;2022-12-29T09:22:03;9.90;;;5.00;;
58918;SDS011;44704;50.122;19.932;2022-12-29T09:24:29;8.60;;;4.80;;
58918;SDS011;44704;50.122;19.932;2022-12-29T09:26:56;7.80;;;4.70;;
58918;SDS011;44704;50.122;19.932;2022-12-29T09:29:23;10.70;;;4.30;;
58918;SDS011;44704;50.122;19.932;2022-12-29T09:31:49;8.00;;;4.20;;
58918;SDS011;44704;50.122;19.932;2022-12-29T09:34:15;13.00;;;5.60;;
58918;SDS011;44704;50.122;19.932;2022-12-29T09:36:42;11.80;;;5.50;;
58918;SDS011;44704;50.122;19.932;2022-12-29T09:39:08;12.30;;;5.00;;
58918;SDS011;44704;50.122;19.932;2022-12-29T09:41:43;10.80;;;5.30;;
58918;SDS011;44704;50.122;19.932;2022-12-29T09:46:48;21.60;;;6.10;;
58918;SDS011;44704;50.122;19.932;2022-12-29T09:49:39;14.50;;;6.60;;
58918;SDS011;44704;50.122;19.932;2022-12-29T09:52:14;13.10;;;6.40;;
58918;SDS011;44704;50.122;19.932;2022-12-29T10:01:21;12.60;;;5.50;;
58918;SDS011;44704;50.122;19.932;2022-12-29T10:06:39;15.00;;;7.20;;
58918;SDS011;44704;50.122;19.932;2022-12-29T10:09:17;21.00;;;7.30;;
58918;SDS011;44704;50.122;19.932;2022-12-29T10:17:23;13.70;;;6.20;;
58918;SDS011;44704;50.122;19.932;2022-12-29T10:25:20;20.30;;;5.80;;
58918;SDS011;44704;50.122;19.932;2022-12-29T10:27:51;12.20;;;5.50;;
58918;SDS011;44704;50.122;19.932;2022-12-29T10:30:21;11.70;;;5.40;;
58918;SDS011;44704;50.122;19.932;2022-12-29T10:32:50;12.80;;;5.50;;
58918;SDS011;44704;50.122;19.932;2022-12-29T10:35:22;12.70;;;5.50;;
58918;SDS011;44704;50.122;19.932;2022-12-29T10:38:01;11.80;;;5.60;;
58918;SDS011;44704;50.122;19.932;2022-12-29T10:40:45;13.90;;;6.00;;
58918;SDS011;44704;50.122;19.932;2022-12-29T10:48:31;9.90;;;5.50;;
58918;SDS011;44704;50.122;19.932;2022-12-29T10:50:59;13.30;;;6.00;;
58918;SDS011;44704;50.122;19.932;2022-12-29T10:53:38;13.50;;;5.80;;
58918;SDS011;44704;50.122;19.932;2022-12-29T10:56:21;10.80;;;5.50;;
58918;SDS011;44704;50.122;19.932;2022-12-29T10:58:54;10.60;;;5.90;;
58918;SDS011;44704;50.122;19.932;2022-12-29T11:01:23;10.30;;;5.90;;
58918;SDS011;44704;50.122;19.932;2022-12-29T11:04:02;11.70;;;5.90;;
58918;SDS011;44704;50.122;19.932;2022-12-29T11:06:48;13.00;;;5.90;;
58918;SDS011;44704;50.122;19.932;2022-12-29T11:09:16;12.70;;;5.90;;
58918;SDS011;44704;50.122;19.932;2022-12-29T11:11:52;11.60;;;5.80;;
58918;SDS011;44704;50.122;19.932;2022-12-29T11:14:19;10.80;;;6.10;;
58918;SDS011;44704;50.122;19.932;2022-12-29T11:16:59;12.80;;;6.00;;
58918;SDS011;44704;50.122;19.932;2022-12-29T11:19:28;12.20;;;6.00;;
58918;SDS011;44704;50.122;19.932;2022-12-29T11:22:12;13.20;;;5.10;;
58918;SDS011;44704;50.122;19.932;2022-12-29T11:24:43;11.70;;;5.30;;
58918;SDS011;44704;50.122;19.932;2022-12-29T11:27:16;10.00;;;4.80;;
58918;SDS011;44704;50.122;19.932;2022-12-29T11:29:46;13.00;;;5.50;;
58918;SDS011;44704;50.122;19.932;2022-12-29T11:32:17;11.10;;;5.50;;
58918;SDS011;44704;50.122;19.932;2022-12-29T11:34:45;11.40;;;5.10;;
58918;SDS011;44704;50.122;19.932;2022-12-29T11:42:35;10.80;;;4.30;;
58918;SDS011;44704;50.122;19.932;2022-12-29T11:48:06;12.70;;;4.60;;
58918;SDS011;44704;50.122;19.932;2022-12-29T11:50:39;8.90;;;3.70;;
58918;SDS011;44704;50.122;19.932;2022-12-29T11:53:14;8.10;;;4.00;;
58918;SDS011;44704;50.122;19.932;2022-12-29T11:56:08;10.10;;;5.00;;
58918;SDS011;44704;50.122;19.932;2022-12-29T11:58:41;8.10;;;4.10;;
58918;SDS011;44704;50.122;19.932;2022-12-29T12:04:12;9.70;;;3.60;;
58918;SDS011;44704;50.122;19.932;2022-12-29T12:06:45;9.10;;;3.80;;
58918;SDS011;44704;50.122;19.932;2022-12-29T12:09:40;8.10;;;3.70;;
58918;SDS011;44704;50.122;19.932;2022-12-29T12:12:24;6.90;;;3.40;;
58918;SDS011;44704;50.122;19.932;2022-12-29T12:14:59;8.50;;;4.20;;
58918;SDS011;44704;50.122;19.932;2022-12-29T12:21:16;8.70;;;4.50;;
58918;SDS011;44704;50.122;19.932;2022-12-29T12:26:34;16.70;;;5.80;;
58918;SDS011;44704;50.122;19.932;2022-12-29T12:29:13;15.90;;;6.90;;
58918;SDS011;44704;50.122;19.932;2022-12-29T12:31:49;14.40;;;6.90;;
58918;SDS011;44704;50.122;19.932;2022-12-29T12:34:54;15.70;;;6.30;;
58918;SDS011;44704;50.122;19.932;2022-12-29T12:54:48;5.80;;;3.60;;
58918;SDS011;44704;50.122;19.932;2022-12-29T12:57:05;9.80;;;3.80;;
58918;SDS011;44704;50.122;19.932;2022-12-29T13:14:32;13.60;;;3.70;;
58918;SDS011;44704;50.122;19.932;2022-12-29T13:23:02;10.60;;;4.70;;
58918;SDS011;44704;50.122;19.932;2022-12-29T13:31:00;11.00;;;4.90;;
58918;SDS011;44704;50.122;19.932;2022-12-29T13:36:40;10.20;;;5.40;;
58918;SDS011;44704;50.122;19.932;2022-12-29T13:39:26;13.00;;;5.10;;
58918;SDS011;44704;50.122;19.932;2022-12-29T13:42:06;11.90;;;4.70;;
58918;SDS011;44704;50.122;19.932;2022-12-29T13:47:19;10.30;;;4.70;;
58918;SDS011;44704;50.122;19.932;2022-12-29T13:49:46;14.00;;;6.10;;
58918;SDS011;44704;50.122;19.932;2022-12-29T13:57:38;14.10;;;7.20;;
58918;SDS011;44704;50.122;19.932;2022-12-29T14:00:23;14.10;;;7.20;;
58918;SDS011;44704;50.122;19.932;2022-12-29T14:05:45;17.30;;;7.30;;
58918;SDS011;44704;50.122;19.932;2022-12-29T14:08:28;13.40;;;7.10;;
58918;SDS011;44704;50.122;19.932;2022-12-29T14:11:01;21.50;;;7.00;;
58918;SDS011;44704;50.122;19.932;2022-12-29T14:13:37;13.10;;;6.30;;
58918;SDS011;44704;50.122;19.932;2022-12-29T14:16:06;15.00;;;6.10;;
58918;SDS011;44704;50.122;19.932;2022-12-29T14:18:40;14.60;;;6.90;;
58918;SDS011;44704;50.122;19.932;2022-12-29T14:23:50;12.60;;;5.80;;
58918;SDS011;44704;50.122;19.932;2022-12-29T14:28:55;13.30;;;5.80;;
58918;SDS011;44704;50.122;19.932;2022-12-29T14:36:41;12.20;;;6.00;;
58918;SDS011;44704;50.122;19.932;2022-12-29T14:39:27;12.10;;;6.30;;
58918;SDS011;44704;50.122;19.932;2022-12-29T14:42:00;14.00;;;7.30;;
58918;SDS011;44704;50.122;19.932;2022-12-29T14:44:30;17.10;;;8.00;;
58918;SDS011;44704;50.122;19.932;2022-12-29T14:46:58;18.50;;;8.30;;
58918;SDS011;44704;50.122;19.932;2022-12-29T14:49:31;19.20;;;8.20;;
58918;SDS011;44704;50.122;19.932;2022-12-29T14:52:21;18.70;;;8.80;;
58918;SDS011;44704;50.122;19.932;2022-12-29T14:55:27;19.70;;;8.80;;
58918;SDS011;44704;50.122;19.932;2022-12-29T14:57:51;20.20;;;7.90;;
58918;SDS011;44704;50.122;19.932;2022-12-29T15:00:23;17.70;;;6.90;;
58918;SDS011;44704;50.122;19.932;2022-12-29T15:03:04;15.10;;;6.30;;
58918;SDS011;44704;50.122;19.932;2022-12-29T15:05:37;15.60;;;7.20;;
58918;SDS011;44704;50.122;19.932;2022-12-29T15:08:10;17.70;;;6.80;;
58918;SDS011;44704;50.122;19.932;2022-12-29T15:10:42;21.70;;;9.60;;
58918;SDS011;44704;50.122;19.932;2022-12-29T15:13:14;20.80;;;10.60;;
58918;SDS011;44704;50.122;19.932;2022-12-29T15:15:49;20.70;;;10.30;;
58918;SDS011;44704;50.122;19.932;2022-12-29T15:18:23;22.20;;;9.10;;
58918;SDS011;44704;50.122;19.932;2022-12-29T15:20:52;21.10;;;9.00;;
58918;SDS011;44704;50.122;19.932;2022-12-29T15:23:21;18.90;;;9.00;;
58918;SDS011;44704;50.122;19.932;2022-12-29T15:26:03;21.10;;;10.20;;
58918;SDS011;44704;50.122;19.932;2022-12-29T15:31:20;22.30;;;10.00;;
58918;SDS011;44704;50.122;19.932;2022-12-29T15:33:50;22.00;;;9.60;;
58918;SDS011;44704;50.122;19.932;2022-12-29T15:36:27;21.20;;;8.40;;
58918;SDS011;44704;50.122;19.932;2022-12-29T15:38:54;21.30;;;9.10;;
58918;SDS011;44704;50.122;19.932;2022-12-29T15:41:26;21.40;;;9.30;;
58918;SDS011;44704;50.122;19.932;2022-12-29T15:44:08;32.70;;;13.90;;
58918;SDS011;44704;50.122;19.932;2022-12-29T15:46:44;30.40;;;14.50;;
58918;SDS011;44704;50.122;19.932;2022-12-29T15:49:11;23.70;;;12.90;;
58918;SDS011;44704;50.122;19.932;2022-12-29T15:51:39;25.40;;;11.70;;
58918;SDS011;44704;50.122;19.932;2022-12-29T15:54:12;25.60;;;12.10;;
58918;SDS011;44704;50.122;19.932;2022-12-29T15:56:43;28.30;;;11.30;;
58918;SDS011;44704;50.122;19.932;2022-12-29T15:59:26;21.80;;;10.10;;
58918;SDS011;44704;50.122;19.932;2022-12-29T16:01:58;28.40;;;13.10;;
58918;SDS011;44704;50.122;19.932;2022-12-29T16:04:30;40.30;;;18.20;;
58918;SDS011;44704;50.122;19.932;2022-12-29T16:11:58;22.20;;;11.90;;
58918;SDS011;44704;50.122;19.932;2022-12-29T16:14:37;23.40;;;12.10;;
58918;SDS011;44704;50.122;19.932;2022-12-29T16:17:03;27.80;;;13.90;;
58918;SDS011;44704;50.122;19.932;2022-12-29T16:19:34;35.20;;;17.70;;
58918;SDS011;44704;50.122;19.932;2022-12-29T16:22:03;24.20;;;13.60;;
58918;SDS011;44704;50.122;19.932;2022-12-29T16:24:37;23.90;;;13.00;;
58918;SDS011;44704;50.122;19.932;2022-12-29T16:27:21;24.10;;;13.30;;
58918;SDS011;44704;50.122;19.932;2022-12-29T16:30:03;22.70;;;13.00;;
58918;SDS011;44704;50.122;19.932;2022-12-29T16:32:46;22.00;;;11.20;;
58918;SDS011;44704;50.122;19.932;2022-12-29T16:35:18;22.10;;;11.20;;
58918;SDS011;44704;50.122;19.932;2022-12-29T16:37:45;20.60;;;10.90;;
58918;SDS011;44704;50.122;19.932;2022-12-29T16:40:30;15.90;;;8.90;;
58918;SDS011;44704;50.122;19.932;2022-12-29T16:43:03;19.10;;;9.00;;
58918;SDS011;44704;50.122;19.932;2022-12-29T16:48:17;19.10;;;9.50;;
58918;SDS011;44704;50.122;19.932;2022-12-29T16:50:45;21.70;;;10.10;;
58918;SDS011;44704;50.122;19.932;2022-12-29T16:53:32;21.20;;;11.60;;
58918;SDS011;44704;50.122;19.932;2022-12-29T16:56:05;27.10;;;14.50;;
58918;SDS011;44704;50.122;19.932;2022-12-29T16:58:38;38.50;;;16.50;;
58918;SDS011;44704;50.122;19.932;2022-12-29T17:01:05;36.20;;;16.90;;
58918;SDS011;44704;50.122;19.932;2022-12-29T17:03:42;29.50;;;15.90;;
58918;SDS011;44704;50.122;19.932;2022-12-29T17:06:15;31.50;;;17.60;;
58918;SDS011;44704;50.122;19.932;2022-12-29T17:08:47;41.30;;;22.90;;
58918;SDS011;44704;50.122;19.932;2022-12-29T17:11:21;40.40;;;20.00;;
58918;SDS011;44704;50.122;19.932;2022-12-29T17:16:53;30.60;;;15.00;;
58918;SDS011;44704;50.122;19.932;2022-12-29T17:19:20;26.60;;;14.10;;
58918;SDS011;44704;50.122;19.932;2022-12-29T17:21:53;27.90;;;12.10;;
58918;SDS011;44704;50.122;19.932;2022-12-29T17:24:20;27.30;;;13.70;;
58918;SDS011;44704;50.122;19.932;2022-12-29T17:26:48;29.30;;;15.70;;
58918;SDS011;44704;50.122;19.932;2022-12-29T17:29:27;35.40;;;16.70;;
58918;SDS011;44704;50.122;19.932;2022-12-29T17:32:01;35.80;;;17.40;;
58918;SDS011;44704;50.122;19.932;2022-12-29T17:34:29;42.90;;;20.50;;
58918;SDS011;44704;50.122;19.932;2022-12-29T17:36:56;40.70;;;18.60;;